sensor_id;sensor_type;location;lat;lon;timestamp;temperature;humidity
72762;SHT30;60886;55.034;73.150;2023-10-13T00:00:02;0.26;79.74
72762;SHT30;60886;55.034;73.150;2023-10-13T00:03:23;0.26;79.51
72762;SHT30;60886;55.034;73.150;2023-10-13T00:06:26;0.29;79.48
72762;SHT30;60886;55.034;73.150;2023-10-13T00:09:28;0.25;79.42
72762;SHT30;60886;55.034;73.150;2023-10-13T00:12:36;0.29;79.40
72762;SHT30;60886;55.034;73.150;2023-10-13T00:15:44;0.25;79.28
72762;SHT30;60886;55.034;73.150;2023-10-13T00:18:58;0.21;79.29
72762;SHT30;60886;55.034;73.150;2023-10-13T00:21:59;0.17;79.27
72762;SHT30;60886;55.034;73.150;2023-10-13T00:25:10;0.14;79.58
72762;SHT30;60886;55.034;73.150;2023-10-13T00:28:20;0.15;79.74
72762;SHT30;60886;55.034;73.150;2023-10-13T00:31:25;0.15;79.63
72762;SHT30;60886;55.034;73.150;2023-10-13T00:34:33;0.12;79.80
72762;SHT30;60886;55.034;73.150;2023-10-13T00:37:38;0.17;79.61
72762;SHT30;60886;55.034;73.150;2023-10-13T00:40:47;0.18;79.42
72762;SHT30;60886;55.034;73.150;2023-10-13T00:43:55;0.14;79.30
72762;SHT30;60886;55.034;73.150;2023-10-13T00:47:05;0.09;79.56
72762;SHT30;60886;55.034;73.150;2023-10-13T00:50:10;0.12;79.40
72762;SHT30;60886;55.034;73.150;2023-10-13T00:53:16;0.08;79.46
72762;SHT30;60886;55.034;73.150;2023-10-13T00:56:17;0.04;79.75
72762;SHT30;60886;55.034;73.150;2023-10-13T00:59:28;0.05;79.37
72762;SHT30;60886;55.034;73.150;2023-10-13T01:02:36;0.05;79.34
72762;SHT30;60886;55.034;73.150;2023-10-13T01:05:42;0.02;79.57
72762;SHT30;60886;55.034;73.150;2023-10-13T01:08:46;0.01;79.46
72762;SHT30;60886;55.034;73.150;2023-10-13T01:11:52;-0.01;79.38
72762;SHT30;60886;55.034;73.150;2023-10-13T01:14:53;-0.05;79.49
72762;SHT30;60886;55.034;73.150;2023-10-13T01:18:08;-0.01;79.53
72762;SHT30;60886;55.034;73.150;2023-10-13T01:21:15;-0.03;79.28
72762;SHT30;60886;55.034;73.150;2023-10-13T01:24:17;-0.06;79.50
72762;SHT30;60886;55.034;73.150;2023-10-13T01:27:22;-0.03;79.33
72762;SHT30;60886;55.034;73.150;2023-10-13T01:30:26;-0.06;79.31
72762;SHT30;60886;55.034;73.150;2023-10-13T01:33:27;-0.06;79.36
72762;SHT30;60886;55.034;73.150;2023-10-13T01:36:30;-0.06;79.27
72762;SHT30;60886;55.034;73.150;2023-10-13T01:39:37;-0.02;79.33
72762;SHT30;60886;55.034;73.150;2023-10-13T01:42:39;-0.01;79.06
72762;SHT30;60886;55.034;73.150;2023-10-13T01:45:40;-0.03;79.08
72762;SHT30;60886;55.034;73.150;2023-10-13T01:48:50;0.01;79.04
72762;SHT30;60886;55.034;73.150;2023-10-13T01:51:55;0.05;78.78
72762;SHT30;60886;55.034;73.150;2023-10-13T01:54:57;0.09;78.51
72762;SHT30;60886;55.034;73.150;2023-10-13T01:58:03;0.08;78.62
72762;SHT30;60886;55.034;73.150;2023-10-13T02:01:04;0.12;78.69
72762;SHT30;60886;55.034;73.150;2023-10-13T02:04:08;0.15;78.39
72762;SHT30;60886;55.034;73.150;2023-10-13T02:07:11;0.19;78.36
72762;SHT30;60886;55.034;73.150;2023-10-13T02:10:16;0.19;78.24
72762;SHT30;60886;55.034;73.150;2023-10-13T02:13:21;0.24;78.13
72762;SHT30;60886;55.034;73.150;2023-10-13T02:16:24;0.28;78.05
72762;SHT30;60886;55.034;73.150;2023-10-13T02:19:26;0.32;77.97
72762;SHT30;60886;55.034;73.150;2023-10-13T02:22:49;0.42;77.84
72762;SHT30;60886;55.034;73.150;2023-10-13T02:25:51;0.41;78.09
72762;SHT30;60886;55.034;73.150;2023-10-13T02:29:02;0.55;77.87
72762;SHT30;60886;55.034;73.150;2023-10-13T02:32:08;0.62;77.81
72762;SHT30;60886;55.034;73.150;2023-10-13T02:35:19;0.70;77.57
72762;SHT30;60886;55.034;73.150;2023-10-13T02:38:32;0.75;77.37
72762;SHT30;60886;55.034;73.150;2023-10-13T02:41:39;0.84;77.55
72762;SHT30;60886;55.034;73.150;2023-10-13T02:44:42;0.99;77.34
72762;SHT30;60886;55.034;73.150;2023-10-13T02:47:47;1.11;77.19
72762;SHT30;60886;55.034;73.150;2023-10-13T02:51:09;1.30;76.92
72762;SHT30;60886;55.034;73.150;2023-10-13T02:54:16;1.44;76.40
72762;SHT30;60886;55.034;73.150;2023-10-13T02:57:21;1.59;75.98
72762;SHT30;60886;55.034;73.150;2023-10-13T03:00:23;1.76;75.72
72762;SHT30;60886;55.034;73.150;2023-10-13T03:03:25;1.95;75.63
72762;SHT30;60886;55.034;73.150;2023-10-13T03:06:28;2.13;75.05
72762;SHT30;60886;55.034;73.150;2023-10-13T03:09:36;2.37;74.69
72762;SHT30;60886;55.034;73.150;2023-10-13T03:12:39;2.67;74.49
72762;SHT30;60886;55.034;73.150;2023-10-13T03:15:41;2.91;73.86
72762;SHT30;60886;55.034;73.150;2023-10-13T03:18:43;3.03;73.72
72762;SHT30;60886;55.034;73.150;2023-10-13T03:21:57;3.24;73.27
72762;SHT30;60886;55.034;73.150;2023-10-13T03:25:08;3.42;72.61
72762;SHT30;60886;55.034;73.150;2023-10-13T03:28:10;3.69;72.30
72762;SHT30;60886;55.034;73.150;2023-10-13T03:31:19;3.96;72.00
72762;SHT30;60886;55.034;73.150;2023-10-13T03:34:20;4.11;71.26
72762;SHT30;60886;55.034;73.150;2023-10-13T03:37:22;4.29;70.38
72762;SHT30;60886;55.034;73.150;2023-10-13T03:40:39;4.48;69.75
72762;SHT30;60886;55.034;73.150;2023-10-13T03:43:41;4.65;69.46
72762;SHT30;60886;55.034;73.150;2023-10-13T03:47:39;4.82;68.70
72762;SHT30;60886;55.034;73.150;2023-10-13T03:50:43;4.99;67.53
72762;SHT30;60886;55.034;73.150;2023-10-13T03:53:49;5.00;67.44
72762;SHT30;60886;55.034;73.150;2023-10-13T03:56:54;5.11;67.50
72762;SHT30;60886;55.034;73.150;2023-10-13T03:59:57;5.25;66.63
72762;SHT30;60886;55.034;73.150;2023-10-13T04:02:58;5.39;65.80
72762;SHT30;60886;55.034;73.150;2023-10-13T04:06:06;5.70;65.65
72762;SHT30;60886;55.034;73.150;2023-10-13T04:09:10;6.08;64.93
72762;SHT30;60886;55.034;73.150;2023-10-13T04:12:36;6.35;64.61
72762;SHT30;60886;55.034;73.150;2023-10-13T04:16:10;6.15;63.98
72762;SHT30;60886;55.034;73.150;2023-10-13T04:19:23;6.12;64.36
72762;SHT30;60886;55.034;73.150;2023-10-13T04:22:25;6.12;64.45
72762;SHT30;60886;55.034;73.150;2023-10-13T04:25:47;6.14;64.54
72762;SHT30;60886;55.034;73.150;2023-10-13T04:28:51;6.22;64.00
72762;SHT30;60886;55.034;73.150;2023-10-13T04:31:56;6.42;63.52
72762;SHT30;60886;55.034;73.150;2023-10-13T04:35:01;6.65;63.63
72762;SHT30;60886;55.034;73.150;2023-10-13T04:38:15;6.65;61.97
72762;SHT30;60886;55.034;73.150;2023-10-13T04:41:26;6.82;62.56
72762;SHT30;60886;55.034;73.150;2023-10-13T04:44:33;7.00;61.12
72762;SHT30;60886;55.034;73.150;2023-10-13T04:47:49;7.20;61.69
72762;SHT30;60886;55.034;73.150;2023-10-13T04:51:00;7.30;60.51
72762;SHT30;60886;55.034;73.150;2023-10-13T04:54:21;7.46;60.77
72762;SHT30;60886;55.034;73.150;2023-10-13T04:57:36;7.57;60.37
72762;SHT30;60886;55.034;73.150;2023-10-13T05:00:46;7.78;59.95
72762;SHT30;60886;55.034;73.150;2023-10-13T05:04:13;7.75;60.05
72762;SHT30;60886;55.034;73.150;2023-10-13T05:07:40;7.74;59.76
72762;SHT30;60886;55.034;73.150;2023-10-13T05:11:05;7.82;59.38
72762;SHT30;60886;55.034;73.150;2023-10-13T05:14:25;7.74;59.53
72762;SHT30;60886;55.034;73.150;2023-10-13T05:17:45;7.54;60.06
72762;SHT30;60886;55.034;73.150;2023-10-13T05:21:05;7.64;59.74
72762;SHT30;60886;55.034;73.150;2023-10-13T05:24:25;7.77;60.13
72762;SHT30;60886;55.034;73.150;2023-10-13T05:27:45;7.91;59.58
72762;SHT30;60886;55.034;73.150;2023-10-13T05:31:05;8.09;60.01
72762;SHT30;60886;55.034;73.150;2023-10-13T05:34:25;8.32;59.66
72762;SHT30;60886;55.034;73.150;2023-10-13T05:37:45;8.52;57.77
72762;SHT30;60886;55.034;73.150;2023-10-13T05:41:05;8.57;56.80
72762;SHT30;60886;55.034;73.150;2023-10-13T05:44:25;8.66;56.81
72762;SHT30;60886;55.034;73.150;2023-10-13T05:47:48;8.77;56.47
72762;SHT30;60886;55.034;73.150;2023-10-13T05:51:00;8.94;56.85
72762;SHT30;60886;55.034;73.150;2023-10-13T05:54:20;9.12;56.05
72762;SHT30;60886;55.034;73.150;2023-10-13T05:57:21;9.19;55.53
72762;SHT30;60886;55.034;73.150;2023-10-13T06:00:41;9.29;56.04
72762;SHT30;60886;55.034;73.150;2023-10-13T06:04:01;9.38;54.68
72762;SHT30;60886;55.034;73.150;2023-10-13T06:07:21;9.41;54.46
72762;SHT30;60886;55.034;73.150;2023-10-13T06:10:41;9.49;54.49
72762;SHT30;60886;55.034;73.150;2023-10-13T06:14:01;9.52;54.79
72762;SHT30;60886;55.034;73.150;2023-10-13T06:17:21;9.68;54.04
72762;SHT30;60886;55.034;73.150;2023-10-13T06:20:40;9.79;54.20
72762;SHT30;60886;55.034;73.150;2023-10-13T06:24:00;9.86;53.60
72762;SHT30;60886;55.034;73.150;2023-10-13T06:27:20;9.85;53.41
72762;SHT30;60886;55.034;73.150;2023-10-13T06:30:40;9.78;54.20
72762;SHT30;60886;55.034;73.150;2023-10-13T06:33:41;9.83;52.92
72762;SHT30;60886;55.034;73.150;2023-10-13T06:36:46;9.79;53.32
72762;SHT30;60886;55.034;73.150;2023-10-13T06:39:53;9.86;53.50
72762;SHT30;60886;55.034;73.150;2023-10-13T06:42:59;9.90;52.77
72762;SHT30;60886;55.034;73.150;2023-10-13T06:46:15;9.93;53.18
72762;SHT30;60886;55.034;73.150;2023-10-13T06:49:17;9.99;53.62
72762;SHT30;60886;55.034;73.150;2023-10-13T06:52:19;10.03;53.33
72762;SHT30;60886;55.034;73.150;2023-10-13T06:55:20;10.04;53.00
72762;SHT30;60886;55.034;73.150;2023-10-13T06:58:29;10.10;52.90
72762;SHT30;60886;55.034;73.150;2023-10-13T07:01:30;10.30;52.77
72762;SHT30;60886;55.034;73.150;2023-10-13T07:04:40;10.50;52.65
72762;SHT30;60886;55.034;73.150;2023-10-13T07:07:41;10.78;50.35
72762;SHT30;60886;55.034;73.150;2023-10-13T07:10:58;10.89;49.67
72762;SHT30;60886;55.034;73.150;2023-10-13T07:14:17;10.84;49.88
72762;SHT30;60886;55.034;73.150;2023-10-13T07:17:21;10.79;49.82
72762;SHT30;60886;55.034;73.150;2023-10-13T07:20:28;10.81;49.43
72762;SHT30;60886;55.034;73.150;2023-10-13T07:23:29;10.89;48.08
72762;SHT30;60886;55.034;73.150;2023-10-13T07:26:32;11.04;46.83
72762;SHT30;60886;55.034;73.150;2023-10-13T07:29:35;11.18;45.81
72762;SHT30;60886;55.034;73.150;2023-10-13T07:32:37;11.25;45.09
72762;SHT30;60886;55.034;73.150;2023-10-13T07:35:38;11.15;44.17
72762;SHT30;60886;55.034;73.150;2023-10-13T07:38:44;11.11;43.92
72762;SHT30;60886;55.034;73.150;2023-10-13T07:41:50;11.12;44.03
72762;SHT30;60886;55.034;73.150;2023-10-13T07:45:09;11.07;43.71
72762;SHT30;60886;55.034;73.150;2023-10-13T07:48:16;11.08;44.13
72762;SHT30;60886;55.034;73.150;2023-10-13T07:51:24;11.09;43.93
72762;SHT30;60886;55.034;73.150;2023-10-13T07:54:31;11.18;43.84
72762;SHT30;60886;55.034;73.150;2023-10-13T07:57:40;11.15;43.80
72762;SHT30;60886;55.034;73.150;2023-10-13T08:01:00;11.16;44.41
72762;SHT30;60886;55.034;73.150;2023-10-13T08:04:07;11.19;41.67
72762;SHT30;60886;55.034;73.150;2023-10-13T08:07:23;11.28;41.56
72762;SHT30;60886;55.034;73.150;2023-10-13T08:10:35;11.29;40.16
72762;SHT30;60886;55.034;73.150;2023-10-13T08:13:41;11.32;39.34
72762;SHT30;60886;55.034;73.150;2023-10-13T08:16:48;11.32;40.69
72762;SHT30;60886;55.034;73.150;2023-10-13T08:19:49;11.47;39.93
72762;SHT30;60886;55.034;73.150;2023-10-13T08:22:51;11.60;39.91
72762;SHT30;60886;55.034;73.150;2023-10-13T08:26:11;11.60;38.88
72762;SHT30;60886;55.034;73.150;2023-10-13T08:29:38;11.67;38.29
72762;SHT30;60886;55.034;73.150;2023-10-13T08:32:58;11.84;38.81
72762;SHT30;60886;55.034;73.150;2023-10-13T08:36:00;11.94;37.97
72762;SHT30;60886;55.034;73.150;2023-10-13T08:39:20;12.01;38.23
72762;SHT30;60886;55.034;73.150;2023-10-13T08:42:40;12.07;38.42
72762;SHT30;60886;55.034;73.150;2023-10-13T08:46:01;12.23;38.48
72762;SHT30;60886;55.034;73.150;2023-10-13T08:49:08;12.35;37.67
72762;SHT30;60886;55.034;73.150;2023-10-13T08:52:19;12.42;38.09
72762;SHT30;60886;55.034;73.150;2023-10-13T08:56:11;12.28;38.01
72762;SHT30;60886;55.034;73.150;2023-10-13T08:59:17;12.18;38.53
72762;SHT30;60886;55.034;73.150;2023-10-13T09:02:24;12.11;37.67
72762;SHT30;60886;55.034;73.150;2023-10-13T09:05:46;12.07;38.47
72762;SHT30;60886;55.034;73.150;2023-10-13T09:09:06;12.04;37.36
72762;SHT30;60886;55.034;73.150;2023-10-13T09:12:22;12.00;37.62
72762;SHT30;60886;55.034;73.150;2023-10-13T09:15:37;11.95;38.19
72762;SHT30;60886;55.034;73.150;2023-10-13T09:19:02;11.98;38.35
72762;SHT30;60886;55.034;73.150;2023-10-13T09:22:05;11.93;39.16
72762;SHT30;60886;55.034;73.150;2023-10-13T09:25:07;12.01;39.02
72762;SHT30;60886;55.034;73.150;2023-10-13T09:28:15;12.07;39.22
72762;SHT30;60886;55.034;73.150;2023-10-13T09:31:22;12.05;38.57
72762;SHT30;60886;55.034;73.150;2023-10-13T09:34:30;12.08;38.21
72762;SHT30;60886;55.034;73.150;2023-10-13T09:37:37;12.11;38.34
72762;SHT30;60886;55.034;73.150;2023-10-13T09:40:39;12.13;37.96
72762;SHT30;60886;55.034;73.150;2023-10-13T09:43:49;12.08;38.35
72762;SHT30;60886;55.034;73.150;2023-10-13T09:47:01;12.13;38.35
72762;SHT30;60886;55.034;73.150;2023-10-13T09:50:22;12.10;38.33
72762;SHT30;60886;55.034;73.150;2023-10-13T09:53:26;12.11;37.81
72762;SHT30;60886;55.034;73.150;2023-10-13T09:56:35;12.13;38.05
72762;SHT30;60886;55.034;73.150;2023-10-13T09:59:59;12.23;36.52
72762;SHT30;60886;55.034;73.150;2023-10-13T10:03:13;12.24;37.09
72762;SHT30;60886;55.034;73.150;2023-10-13T10:06:32;12.30;36.26
72762;SHT30;60886;55.034;73.150;2023-10-13T10:09:56;12.27;36.98
72762;SHT30;60886;55.034;73.150;2023-10-13T10:13:05;12.33;37.15
72762;SHT30;60886;55.034;73.150;2023-10-13T10:16:11;12.37;36.28
72762;SHT30;60886;55.034;73.150;2023-10-13T10:19:17;12.34;35.51
72762;SHT30;60886;55.034;73.150;2023-10-13T10:22:31;12.37;36.07
72762;SHT30;60886;55.034;73.150;2023-10-13T10:25:37;12.35;36.59
72762;SHT30;60886;55.034;73.150;2023-10-13T10:28:41;12.38;36.20
72762;SHT30;60886;55.034;73.150;2023-10-13T10:31:45;12.42;35.53
72762;SHT30;60886;55.034;73.150;2023-10-13T10:34:50;12.38;35.10
72762;SHT30;60886;55.034;73.150;2023-10-13T10:37:51;12.41;35.26
72762;SHT30;60886;55.034;73.150;2023-10-13T10:40:55;12.49;35.18
72762;SHT30;60886;55.034;73.150;2023-10-13T10:44:00;12.58;34.98
72762;SHT30;60886;55.034;73.150;2023-10-13T10:47:14;12.86;34.70
72762;SHT30;60886;55.034;73.150;2023-10-13T10:50:37;13.00;34.04
72762;SHT30;60886;55.034;73.150;2023-10-13T10:53:40;12.75;34.48
72762;SHT30;60886;55.034;73.150;2023-10-13T10:56:46;12.59;34.05
72762;SHT30;60886;55.034;73.150;2023-10-13T10:59:54;12.44;34.44
72762;SHT30;60886;55.034;73.150;2023-10-13T11:03:12;12.35;34.90
72762;SHT30;60886;55.034;73.150;2023-10-13T11:06:17;12.30;35.54
72762;SHT30;60886;55.034;73.150;2023-10-13T11:09:28;12.25;34.67
72762;SHT30;60886;55.034;73.150;2023-10-13T11:12:37;12.21;34.80
72762;SHT30;60886;55.034;73.150;2023-10-13T11:15:44;12.14;34.64
72762;SHT30;60886;55.034;73.150;2023-10-13T11:18:46;12.13;34.57
72762;SHT30;60886;55.034;73.150;2023-10-13T11:21:50;12.07;34.98
72762;SHT30;60886;55.034;73.150;2023-10-13T11:24:51;12.08;34.50
72762;SHT30;60886;55.034;73.150;2023-10-13T11:27:56;12.01;34.94
72762;SHT30;60886;55.034;73.150;2023-10-13T11:30:58;11.90;36.10
72762;SHT30;60886;55.034;73.150;2023-10-13T11:34:14;11.87;34.77
72762;SHT30;60886;55.034;73.150;2023-10-13T11:37:18;11.87;35.28
72762;SHT30;60886;55.034;73.150;2023-10-13T11:40:39;11.82;35.00
72762;SHT30;60886;55.034;73.150;2023-10-13T11:44:01;11.77;35.57
72762;SHT30;60886;55.034;73.150;2023-10-13T11:47:24;11.69;35.59
72762;SHT30;60886;55.034;73.150;2023-10-13T11:50:49;11.63;35.35
72762;SHT30;60886;55.034;73.150;2023-10-13T11:53:50;11.58;35.76
72762;SHT30;60886;55.034;73.150;2023-10-13T11:56:55;11.59;36.03
72762;SHT30;60886;55.034;73.150;2023-10-13T11:59:59;11.56;36.20
72762;SHT30;60886;55.034;73.150;2023-10-13T12:03:23;11.50;35.68
72762;SHT30;60886;55.034;73.150;2023-10-13T12:06:43;11.42;36.37
72762;SHT30;60886;55.034;73.150;2023-10-13T12:10:07;11.39;35.83
72762;SHT30;60886;55.034;73.150;2023-10-13T12:13:16;11.28;36.61
72762;SHT30;60886;55.034;73.150;2023-10-13T12:16:18;11.25;36.72
72762;SHT30;60886;55.034;73.150;2023-10-13T12:19:22;11.19;37.39
72762;SHT30;60886;55.034;73.150;2023-10-13T12:22:39;11.08;37.70
72762;SHT30;60886;55.034;73.150;2023-10-13T12:25:40;11.02;37.92
72762;SHT30;60886;55.034;73.150;2023-10-13T12:29:07;11.01;38.17
72762;SHT30;60886;55.034;73.150;2023-10-13T12:32:19;10.94;38.49
72762;SHT30;60886;55.034;73.150;2023-10-13T12:35:32;10.89;38.81
72762;SHT30;60886;55.034;73.150;2023-10-13T12:38:38;10.77;40.73
72762;SHT30;60886;55.034;73.150;2023-10-13T12:41:49;10.63;40.41
72762;SHT30;60886;55.034;73.150;2023-10-13T12:45:09;10.48;41.10
72762;SHT30;60886;55.034;73.150;2023-10-13T12:48:29;10.43;41.44
72762;SHT30;60886;55.034;73.150;2023-10-13T12:51:50;10.37;41.83
72762;SHT30;60886;55.034;73.150;2023-10-13T12:54:54;10.33;41.47
72762;SHT30;60886;55.034;73.150;2023-10-13T12:57:55;10.27;41.81
72762;SHT30;60886;55.034;73.150;2023-10-13T13:01:00;10.29;41.54
72762;SHT30;60886;55.034;73.150;2023-10-13T13:04:08;10.29;41.26
72762;SHT30;60886;55.034;73.150;2023-10-13T13:07:14;10.33;41.13
72762;SHT30;60886;55.034;73.150;2023-10-13T13:10:19;10.37;40.74
72762;SHT30;60886;55.034;73.150;2023-10-13T13:13:20;10.30;40.92
72762;SHT30;60886;55.034;73.150;2023-10-13T13:16:26;10.30;40.85
72762;SHT30;60886;55.034;73.150;2023-10-13T13:19:36;10.30;41.19
72762;SHT30;60886;55.034;73.150;2023-10-13T13:22:40;10.24;40.82
72762;SHT30;60886;55.034;73.150;2023-10-13T13:25:53;10.23;41.29
72762;SHT30;60886;55.034;73.150;2023-10-13T13:28:54;10.23;40.43
72762;SHT30;60886;55.034;73.150;2023-10-13T13:32:07;10.20;41.02
72762;SHT30;60886;55.034;73.150;2023-10-13T13:35:18;10.16;40.89
72762;SHT30;60886;55.034;73.150;2023-10-13T13:38:20;10.17;40.53
72762;SHT30;60886;55.034;73.150;2023-10-13T13:41:28;10.10;40.80
72762;SHT30;60886;55.034;73.150;2023-10-13T13:44:33;10.10;40.69
72762;SHT30;60886;55.034;73.150;2023-10-13T13:47:37;10.13;40.51
72762;SHT30;60886;55.034;73.150;2023-10-13T13:50:38;10.14;40.65
72762;SHT30;60886;55.034;73.150;2023-10-13T13:53:43;10.12;40.55
72762;SHT30;60886;55.034;73.150;2023-10-13T13:56:47;10.06;40.71
72762;SHT30;60886;55.034;73.150;2023-10-13T13:59:48;10.06;41.14
72762;SHT30;60886;55.034;73.150;2023-10-13T14:02:50;9.97;41.31
72762;SHT30;60886;55.034;73.150;2023-10-13T14:05:55;9.93;41.01
72762;SHT30;60886;55.034;73.150;2023-10-13T14:09:00;9.86;40.71
72762;SHT30;60886;55.034;73.150;2023-10-13T14:12:06;9.86;40.44
72762;SHT30;60886;55.034;73.150;2023-10-13T14:15:26;9.82;40.35
72762;SHT30;60886;55.034;73.150;2023-10-13T14:18:29;9.87;39.62
72762;SHT30;60886;55.034;73.150;2023-10-13T14:21:31;9.93;39.53
72762;SHT30;60886;55.034;73.150;2023-10-13T14:24:37;10.00;38.73
72762;SHT30;60886;55.034;73.150;2023-10-13T14:27:44;10.04;38.64
72762;SHT30;60886;55.034;73.150;2023-10-13T14:30:46;10.06;38.84
72762;SHT30;60886;55.034;73.150;2023-10-13T14:33:47;10.06;38.45
72762;SHT30;60886;55.034;73.150;2023-10-13T14:36:49;10.04;38.26
72762;SHT30;60886;55.034;73.150;2023-10-13T14:39:50;10.07;38.05
72762;SHT30;60886;55.034;73.150;2023-10-13T14:42:52;10.09;38.13
72762;SHT30;60886;55.034;73.150;2023-10-13T14:45:54;10.04;38.54
72762;SHT30;60886;55.034;73.150;2023-10-13T14:48:55;10.00;38.75
72762;SHT30;60886;55.034;73.150;2023-10-13T14:51:57;10.07;38.61
72762;SHT30;60886;55.034;73.150;2023-10-13T14:55:00;10.18;38.33
72762;SHT30;60886;55.034;73.150;2023-10-13T14:58:02;10.20;38.27
72762;SHT30;60886;55.034;73.150;2023-10-13T15:01:13;10.21;38.60
72762;SHT30;60886;55.034;73.150;2023-10-13T15:04:16;10.24;38.72
72762;SHT30;60886;55.034;73.150;2023-10-13T15:07:36;10.33;38.05
72762;SHT30;60886;55.034;73.150;2023-10-13T15:10:37;10.32;38.29
72762;SHT30;60886;55.034;73.150;2023-10-13T15:13:42;10.37;38.30
72762;SHT30;60886;55.034;73.150;2023-10-13T15:16:43;10.37;38.49
72762;SHT30;60886;55.034;73.150;2023-10-13T15:19:45;10.34;38.60
72762;SHT30;60886;55.034;73.150;2023-10-13T15:22:46;10.37;38.66
72762;SHT30;60886;55.034;73.150;2023-10-13T15:25:50;10.37;38.31
72762;SHT30;60886;55.034;73.150;2023-10-13T15:28:53;10.38;38.53
72762;SHT30;60886;55.034;73.150;2023-10-13T15:31:57;10.40;39.11
72762;SHT30;60886;55.034;73.150;2023-10-13T15:35:01;10.41;38.90
72762;SHT30;60886;55.034;73.150;2023-10-13T15:38:04;10.45;39.04
72762;SHT30;60886;55.034;73.150;2023-10-13T15:41:08;10.44;38.82
72762;SHT30;60886;55.034;73.150;2023-10-13T15:44:12;10.44;38.73
72762;SHT30;60886;55.034;73.150;2023-10-13T15:47:14;10.44;39.24
72762;SHT30;60886;55.034;73.150;2023-10-13T15:50:16;10.47;38.97
72762;SHT30;60886;55.034;73.150;2023-10-13T15:53:21;10.45;39.79
72762;SHT30;60886;55.034;73.150;2023-10-13T15:56:26;10.50;39.71
72762;SHT30;60886;55.034;73.150;2023-10-13T15:59:28;10.50;40.00
72762;SHT30;60886;55.034;73.150;2023-10-13T16:02:36;10.51;40.21
72762;SHT30;60886;55.034;73.150;2023-10-13T16:05:38;10.48;40.45
72762;SHT30;60886;55.034;73.150;2023-10-13T16:08:43;10.51;40.11
72762;SHT30;60886;55.034;73.150;2023-10-13T16:11:46;10.50;40.58
72762;SHT30;60886;55.034;73.150;2023-10-13T16:14:47;10.50;40.57
72762;SHT30;60886;55.034;73.150;2023-10-13T16:17:49;10.48;41.23
72762;SHT30;60886;55.034;73.150;2023-10-13T16:20:54;10.45;40.49
72762;SHT30;60886;55.034;73.150;2023-10-13T16:23:56;10.47;40.89
72762;SHT30;60886;55.034;73.150;2023-10-13T16:26:58;10.43;41.32
72762;SHT30;60886;55.034;73.150;2023-10-13T16:30:00;10.41;41.65
72762;SHT30;60886;55.034;73.150;2023-10-13T16:33:05;10.40;41.15
72762;SHT30;60886;55.034;73.150;2023-10-13T16:36:10;10.34;40.95
72762;SHT30;60886;55.034;73.150;2023-10-13T16:39:12;10.33;41.27
72762;SHT30;60886;55.034;73.150;2023-10-13T16:42:17;10.34;41.59
72762;SHT30;60886;55.034;73.150;2023-10-13T16:45:25;10.33;41.94
72762;SHT30;60886;55.034;73.150;2023-10-13T16:48:27;10.37;42.66
72762;SHT30;60886;55.034;73.150;2023-10-13T16:51:28;10.38;43.48
72762;SHT30;60886;55.034;73.150;2023-10-13T16:54:35;10.41;43.66
72762;SHT30;60886;55.034;73.150;2023-10-13T16:57:37;10.40;44.18
72762;SHT30;60886;55.034;73.150;2023-10-13T17:00:40;10.45;44.45
72762;SHT30;60886;55.034;73.150;2023-10-13T17:03:44;10.43;44.06
72762;SHT30;60886;55.034;73.150;2023-10-13T17:06:46;10.45;44.16
72762;SHT30;60886;55.034;73.150;2023-10-13T17:09:47;10.50;43.81
72762;SHT30;60886;55.034;73.150;2023-10-13T17:12:49;10.47;44.37
72762;SHT30;60886;55.034;73.150;2023-10-13T17:15:51;10.43;44.52
72762;SHT30;60886;55.034;73.150;2023-10-13T17:18:52;10.40;45.18
72762;SHT30;60886;55.034;73.150;2023-10-13T17:21:55;10.36;44.84
72762;SHT30;60886;55.034;73.150;2023-10-13T17:24:59;10.32;44.76
72762;SHT30;60886;55.034;73.150;2023-10-13T17:28:02;10.34;44.76
72762;SHT30;60886;55.034;73.150;2023-10-13T17:31:23;10.30;44.98
72762;SHT30;60886;55.034;73.150;2023-10-13T17:34:28;10.26;45.04
72762;SHT30;60886;55.034;73.150;2023-10-13T17:37:36;10.24;45.26
72762;SHT30;60886;55.034;73.150;2023-10-13T17:40:55;10.30;45.51
72762;SHT30;60886;55.034;73.150;2023-10-13T17:43:56;10.30;45.28
72762;SHT30;60886;55.034;73.150;2023-10-13T17:47:01;10.27;45.44
72762;SHT30;60886;55.034;73.150;2023-10-13T17:50:03;10.24;45.64
72762;SHT30;60886;55.034;73.150;2023-10-13T17:53:08;10.23;45.58
72762;SHT30;60886;55.034;73.150;2023-10-13T17:56:12;10.24;45.82
72762;SHT30;60886;55.034;73.150;2023-10-13T17:59:14;10.24;45.67
72762;SHT30;60886;55.034;73.150;2023-10-13T18:02:15;10.23;46.05
72762;SHT30;60886;55.034;73.150;2023-10-13T18:05:18;10.21;45.71
72762;SHT30;60886;55.034;73.150;2023-10-13T18:08:21;10.17;46.40
72762;SHT30;60886;55.034;73.150;2023-10-13T18:11:24;10.23;46.10
72762;SHT30;60886;55.034;73.150;2023-10-13T18:14:26;10.21;45.89
72762;SHT30;60886;55.034;73.150;2023-10-13T18:17:36;10.24;46.40
72762;SHT30;60886;55.034;73.150;2023-10-13T18:20:40;10.20;46.68
72762;SHT30;60886;55.034;73.150;2023-10-13T18:23:41;10.18;46.54
72762;SHT30;60886;55.034;73.150;2023-10-13T18:26:44;10.21;46.56
72762;SHT30;60886;55.034;73.150;2023-10-13T18:29:45;10.23;46.41
72762;SHT30;60886;55.034;73.150;2023-10-13T18:32:52;10.24;47.11
72762;SHT30;60886;55.034;73.150;2023-10-13T18:35:55;10.21;46.64
72762;SHT30;60886;55.034;73.150;2023-10-13T18:38:57;10.14;46.53
72762;SHT30;60886;55.034;73.150;2023-10-13T18:42:03;10.10;46.67
72762;SHT30;60886;55.034;73.150;2023-10-13T18:45:07;10.18;46.96
72762;SHT30;60886;55.034;73.150;2023-10-13T18:48:09;10.21;47.11
72762;SHT30;60886;55.034;73.150;2023-10-13T18:51:18;10.17;47.59
72762;SHT30;60886;55.034;73.150;2023-10-13T18:54:20;10.20;47.77
72762;SHT30;60886;55.034;73.150;2023-10-13T18:57:21;10.20;48.42
72762;SHT30;60886;55.034;73.150;2023-10-13T19:00:23;10.24;47.97
72762;SHT30;60886;55.034;73.150;2023-10-13T19:03:24;10.26;48.14
72762;SHT30;60886;55.034;73.150;2023-10-13T19:06:30;10.29;48.42
72762;SHT30;60886;55.034;73.150;2023-10-13T19:09:32;10.32;47.96
72762;SHT30;60886;55.034;73.150;2023-10-13T19:12:36;10.29;48.37
72762;SHT30;60886;55.034;73.150;2023-10-13T19:15:37;10.29;48.47
72762;SHT30;60886;55.034;73.150;2023-10-13T19:18:40;10.21;48.34
72762;SHT30;60886;55.034;73.150;2023-10-13T19:21:41;10.20;48.94
72762;SHT30;60886;55.034;73.150;2023-10-13T19:24:47;10.17;49.22
72762;SHT30;60886;55.034;73.150;2023-10-13T19:27:48;10.17;49.26
72762;SHT30;60886;55.034;73.150;2023-10-13T19:30:50;10.12;49.48
72762;SHT30;60886;55.034;73.150;2023-10-13T19:33:58;10.13;49.43